Stoddard, Idaho
Current Conditions -  °F | °C
As of 2:15 AM on Wednesday 28 Jan 2015 (Local Time) from KMAN Reporting Station
NA  
Wind Chill: 34°   Ceiling: NA
Heat Index: 34°   Visibility: 0mi
Dew Point: 34°   Wind: 0mph
Humidity: 100%   Direction: NA
Pressure: 30.24"   Gusts: NA
Location:  43.3697°N, 116.52°W
Report Text: KMAN 280915Z AUTO 00000KT M1/4SM 01/01 A3024 RMK AO1
Loading
Personal Weather Stations






























Interactive Weather Map New forecast layout! Learn more

10-Day Weather Forecast

Advertisements
Track Severe Weather on mobile